Nineveh, Pennsylvania
Current Conditions -  °F | °C
As of 10:53 PM on Friday 19 Dec 2014 (Local Time) from KHLG Reporting Station
Overcast Overcast  
Wind Chill: 29°   Ceiling: 2200
Heat Index: 29°   Visibility: 10mi
Dew Point: 23°   Wind: 3mph
Humidity: 78%   Direction: 350°N
Pressure: 30.25"   Gusts: NA
Location:  39.96°N, 80.3°W
Report Text: KHLG 200353Z AUTO 35003KT 10SM OVC022 M02/M05 A3025 RMK AO2 SLP262 T10171050
Loading
Personal Weather Stations






























Interactive Weather Map New forecast layout! Learn more

10-Day Weather Forecast

Advertisements
Track Severe Weather on mobile